Cambridge, Minnesota
Current Conditions -  °F | °C
As of 4:16 AM on Thursday 29 Jan 2015 (Local Time) from KCBG Reporting Station
Overcast Overcast  
Wind Chill: -3°   Ceiling: 2100
Heat Index:   Visibility: 10mi
Dew Point: -3°   Wind: 14mph
Humidity: 70%   Direction: 320°NW
Pressure: 29.93"   Gusts: 21mph
Location:  45.57°N, 93.22°W
Report Text: KCBG 291016Z AUTO 32012G18KT 10SM OVC021 02/M03 A2993 RMK AO2
Loading
Personal Weather Stations






























Interactive Weather Map New forecast layout! Learn more

10-Day Weather Forecast

Advertisements
Track Severe Weather on mobile